Airfield :
LOGIN :

Register | Disclaimer

   EN    FR    IT 

 










Legend :    VFR   Marginal VFR   IFR   Intensive IFR   Very Intensive IFR
Visi :
Ceiling :
>= 8 km
>= 3000ft
5 to 8 km
1000 to 3000 ft
1500m to 5 km
500 to 1000 ft
800 to 1500m
200 to 500 ft
< 800m
< 200 ft
Symbols :   Thunderstorms  Fog  Heavy snow  Heavy precipitations  Wind > 20 kt
SIGMETs :     Misc.  Thunderstorms  Icing  Turbulence  Mountain Waves  Volcanic Ashes






- Airport Elevation : 404 ft
- IATA code : WRO


EPWR - Wroclaw

CURRENT METAR :
  • 191130Z 21008KT CAVOK 03/M01 Q1013 R11/62//94

EXPIRED METARs :
  • 191100Z 21007KT 9999 FEW040 03/M01 Q1013 R11/62//94
  • 191030Z 21006KT 9999 FEW035 03/M01 Q1013 R11/62//94
  • 191000Z 23006KT 9999 FEW035 03/M01 Q1014 R11/62//94
  • 190930Z 22006KT 9999 BKN025 03/M01 Q1014 R11/62//94
  • 190900Z 23007KT 9999 BKN025 02/M01 Q1015 R11/62//94

TAF TAF EPWR
Valid from the 19 at 12:00 until the 20 at 12:00 UTC


191130Z 1912/2012 21010KT 9999 BKN030
BECMG 1914/1917 BKN014
TEMPO 1915/1920 4000 RASN BR BKN007
PROB40
TEMPO 1915/1918 2000 SN BKN004
PROB30
TEMPO 1918/2001 -FZRA
TEMPO 1920/2003 4000 RA BR BKN007
BECMG 2003/2006 BKN040



MET'MAP, your aeronautical weather chart ! - Copyright ORBIFLY December 2007 - Disclaimer

ORBIFLY MET'MAP TEAM :

Programming & Development : Alexandra Zaïnal
Concept & original design : Baudouin d'Aumeries
Assistance for programming : Marc-Olivier Méhu
Technical & hardware support : Manuel Goepfert

Contact : metmap@orbifly.com




SOURCES & CREDITS :

   NOAA